Time;durP1;ratioP1;P1;durP2;ratioP2;P2;SDS_P1;SDS_P2;PMS_P1;PMS_P2;Temp;Humidity;BMP_temperature;BMP_pressure;BME280_temperature;BME280_humidity;BME280_pressure;Samples;Min_cycle;Max_cycle;Signal;HPM_P1;HPM_P2
2021/05/24 00:01:10;;;;;;;2.28;1.70;;;24.00;31.80;;;;;;5011113;28;20034;-65
2021/05/24 00:03:36;;;;;;;2.78;2.00;;;24.00;32.50;;;;;;5008357;28;20049;-63
2021/05/24 00:06:01;;;;;;;2.25;1.50;;;23.90;31.80;;;;;;5009516;28;20038;-63
2021/05/24 00:08:27;;;;;;;1.90;1.48;;;23.90;31.80;;;;;;5007955;28;20026;-62
2021/05/24 00:10:53;;;;;;;1.33;1.23;;;24.00;31.90;;;;;;5007110;28;20460;-62
2021/05/24 00:13:24;;;;;;;2.25;1.30;;;23.90;31.80;;;;;;4987561;28;20026;-62
2021/05/24 00:15:56;;;;;;;1.33;1.20;;;23.90;31.80;;;;;;5011319;28;20030;-63
2021/05/24 00:18:22;;;;;;;2.05;1.50;;;23.90;31.80;;;;;;5010495;28;20303;-62
2021/05/24 00:21:00;;;;;;;2.85;1.50;;;23.90;31.80;;;;;;5009619;28;20037;-62
2021/05/24 00:23:27;;;;;;;1.45;1.30;;;23.90;31.80;;;;;;5007983;28;20449;-64
2021/05/24 00:25:53;;;;;;;2.58;1.42;;;23.90;31.90;;;;;;5012662;28;20460;-64
2021/05/24 00:28:19;;;;;;;1.58;1.25;;;23.90;31.90;;;;;;5011488;28;20034;-64
2021/05/24 00:30:46;;;;;;;1.85;1.38;;;23.90;31.90;;;;;;5010922;28;20065;-64
2021/05/24 00:33:13;;;;;;;1.67;1.10;;;23.90;31.90;;;;;;5011587;28;20029;-64
2021/05/24 00:35:39;;;;;;;1.80;1.20;;;23.90;31.90;;;;;;5013445;28;20030;-62
2021/05/24 00:38:06;;;;;;;1.85;1.10;;;23.80;31.90;;;;;;5008339;28;20426;-64
2021/05/24 00:40:34;;;;;;;1.40;1.10;;;23.80;31.90;;;;;;5013234;28;20022;-62
2021/05/24 00:43:01;;;;;;;1.75;1.25;;;23.80;31.90;;;;;;5009288;28;20026;-63
2021/05/24 00:45:27;;;;;;;1.52;1.15;;;23.80;32.00;;;;;;5011828;28;20060;-63
2021/05/24 00:47:53;;;;;;;1.83;1.25;;;23.80;32.00;;;;;;5010085;28;20461;-63
2021/05/24 00:50:19;;;;;;;1.50;1.10;;;23.80;32.00;;;;;;5014091;28;20034;-64
2021/05/24 00:52:45;;;;;;;1.98;0.98;;;23.80;32.00;;;;;;5009149;28;20442;-63
2021/05/24 00:55:12;;;;;;;1.63;1.00;;;23.80;32.00;;;;;;5011301;28;20033;-62
2021/05/24 00:57:39;;;;;;;1.05;0.77;;;23.70;32.00;;;;;;5014921;28;20041;-64
2021/05/24 01:00:08;;;;;;;1.20;0.82;;;23.70;32.10;;;;;;5008748;28;20041;-61
2021/05/24 01:02:34;;;;;;;1.25;1.00;;;23.70;32.10;;;;;;5008023;28;20037;-63
2021/05/24 01:04:59;;;;;;;1.33;0.80;;;23.70;32.10;;;;;;5014192;28;20052;-62
2021/05/24 01:07:25;;;;;;;1.23;1.08;;;23.70;32.10;;;;;;5012680;28;20030;-62
2021/05/24 01:09:52;;;;;;;1.38;1.00;;;23.70;32.20;;;;;;5015360;28;20046;-62
2021/05/24 01:12:18;;;;;;;1.20;0.80;;;23.70;32.20;;;;;;5011283;28;20130;-64
2021/05/24 01:14:44;;;;;;;1.52;1.00;;;23.70;32.20;;;;;;5009927;28;20091;-63
2021/05/24 01:17:10;;;;;;;2.13;0.85;;;23.60;32.20;;;;;;5011825;28;20026;-62
2021/05/24 01:19:44;;;;;;;1.30;0.60;;;23.60;32.20;;;;;;5009349;28;20034;-63
2021/05/24 01:22:15;;;;;;;1.83;0.85;;;23.70;32.30;;;;;;5010364;28;20026;-63
2021/05/24 01:24:41;;;;;;;0.95;0.70;;;23.60;32.30;;;;;;5010578;28;20026;-63
2021/05/24 01:27:07;;;;;;;0.82;0.73;;;23.60;32.30;;;;;;5010661;28;20038;-64
2021/05/24 01:29:33;;;;;;;0.98;0.60;;;23.60;32.30;;;;;;5008663;28;20038;-64
2021/05/24 01:31:59;;;;;;;1.13;0.80;;;23.60;32.40;;;;;;5013360;28;20049;-64
2021/05/24 01:34:25;;;;;;;1.02;0.52;;;23.60;32.40;;;;;;5010622;28;20096;-63
2021/05/24 01:36:50;;;;;;;1.02;0.50;;;23.60;32.40;;;;;;5013041;28;20041;-63
2021/05/24 01:39:19;;;;;;;0.82;0.60;;;23.60;32.40;;;;;;5009603;28;20118;-63
2021/05/24 01:41:46;;;;;;;1.45;0.88;;;23.60;32.50;;;;;;5015555;28;20025;-64
2021/05/24 01:44:12;;;;;;;0.88;0.45;;;23.60;32.50;;;;;;5009246;28;20040;-63
2021/05/24 01:46:38;;;;;;;0.93;0.60;;;23.60;32.50;;;;;;5011278;28;20042;-64
2021/05/24 01:49:04;;;;;;;0.73;0.60;;;23.60;32.50;;;;;;5008459;28;20061;-64
2021/05/24 01:51:30;;;;;;;1.05;0.82;;;23.60;32.50;;;;;;5011422;28;20026;-64
2021/05/24 01:53:56;;;;;;;0.90;0.47;;;23.50;32.50;;;;;;5011470;28;20188;-64
2021/05/24 01:56:22;;;;;;;0.73;0.40;;;23.50;32.60;;;;;;5011143;28;20033;-63
2021/05/24 01:58:47;;;;;;;0.88;0.55;;;23.60;32.60;;;;;;5008107;28;20456;-65
2021/05/24 02:01:14;;;;;;;0.70;0.50;;;23.50;32.60;;;;;;5010855;28;20512;-64
2021/05/24 02:03:40;;;;;;;1.20;0.57;;;23.50;32.70;;;;;;5008831;28;22112;-64
2021/05/24 02:06:06;;;;;;;0.63;0.40;;;23.50;32.70;;;;;;5009055;28;20038;-65
2021/05/24 02:08:33;;;;;;;1.25;0.70;;;23.50;32.70;;;;;;5012948;28;20462;-64
2021/05/24 02:11:00;;;;;;;0.80;0.50;;;23.50;32.70;;;;;;5009834;28;20033;-65
2021/05/24 02:13:28;;;;;;;1.30;0.50;;;23.50;32.80;;;;;;5011824;28;20076;-64
2021/05/24 02:15:54;;;;;;;0.85;0.40;;;23.50;32.80;;;;;;5008970;28;20034;-64
2021/05/24 02:18:21;;;;;;;0.77;0.50;;;23.50;32.80;;;;;;5009357;28;21691;-63
2021/05/24 02:20:46;;;;;;;0.80;0.50;;;23.40;32.80;;;;;;5013379;28;20037;-64
2021/05/24 02:23:13;;;;;;;1.13;0.40;;;23.50;32.90;;;;;;5012785;28;20037;-62
2021/05/24 02:25:39;;;;;;;1.23;0.63;;;23.40;32.90;;;;;;5010911;28;20050;-64
2021/05/24 02:28:05;;;;;;;1.08;0.60;;;23.40;32.90;;;;;;5008717;28;20129;-64
2021/05/24 02:30:33;;;;;;;0.77;0.50;;;23.40;32.90;;;;;;5005391;28;20026;-65
2021/05/24 02:32:59;;;;;;;0.47;0.40;;;23.40;32.90;;;;;;5010493;28;20045;-63
2021/05/24 02:35:27;;;;;;;0.82;0.50;;;23.40;32.90;;;;;;5009403;28;20021;-64
2021/05/24 02:37:55;;;;;;;0.47;0.40;;;23.40;33.00;;;;;;5008326;28;20030;-63
2021/05/24 02:40:21;;;;;;;1.55;0.50;;;23.40;33.00;;;;;;5010101;28;20043;-64
2021/05/24 02:42:48;;;;;;;0.32;0.32;;;23.40;33.00;;;;;;5006940;28;20172;-64
2021/05/24 02:45:16;;;;;;;0.60;0.40;;;23.40;33.10;;;;;;5007873;28;20034;-64
2021/05/24 02:47:43;;;;;;;0.57;0.43;;;23.40;33.10;;;;;;5009622;28;20369;-64
2021/05/24 02:50:12;;;;;;;1.55;0.50;;;23.40;33.10;;;;;;5008619;28;20026;-64
2021/05/24 02:52:38;;;;;;;0.80;0.40;;;23.40;33.10;;;;;;5013626;28;20062;-63
2021/05/24 02:55:06;;;;;;;0.50;0.30;;;23.30;33.10;;;;;;5010327;28;20192;-64
2021/05/24 02:57:31;;;;;;;0.63;0.32;;;23.30;33.10;;;;;;5012770;28;20029;-63
2021/05/24 02:59:57;;;;;;;1.35;0.57;;;23.30;33.20;;;;;;5005665;28;20030;-64
2021/05/24 03:02:28;;;;;;;0.47;0.30;;;23.30;33.20;;;;;;5008671;28;20030;-64
2021/05/24 03:04:54;;;;;;;1.08;0.57;;;23.30;33.20;;;;;;5009923;28;20026;-64
2021/05/24 03:07:21;;;;;;;1.70;0.40;;;23.30;33.30;;;;;;5008827;28;20045;-63
2021/05/24 03:09:47;;;;;;;0.35;0.30;;;23.30;33.30;;;;;;5006917;28;20026;-62
2021/05/24 03:12:13;;;;;;;0.75;0.30;;;23.30;33.30;;;;;;5008750;28;20464;-63
2021/05/24 03:14:39;;;;;;;0.85;0.50;;;23.30;33.30;;;;;;5012910;28;20030;-62
2021/05/24 03:17:05;;;;;;;0.80;0.50;;;23.30;33.40;;;;;;5009649;28;20059;-63
2021/05/24 03:19:31;;;;;;;1.38;0.35;;;23.30;33.40;;;;;;5013124;28;20021;-64
2021/05/24 03:21:57;;;;;;;0.50;0.40;;;23.30;33.40;;;;;;5012478;28;20030;-63
2021/05/24 03:24:23;;;;;;;0.77;0.40;;;23.20;33.30;;;;;;5011519;28;20112;-63
2021/05/24 03:26:49;;;;;;;0.73;0.40;;;23.20;33.30;;;;;;5009122;28;20145;-64
2021/05/24 03:29:15;;;;;;;0.40;0.30;;;23.20;33.40;;;;;;5006283;28;20041;-63
2021/05/24 03:31:41;;;;;;;0.73;0.40;;;23.20;33.40;;;;;;5012968;28;20152;-63
2021/05/24 03:34:06;;;;;;;0.73;0.40;;;23.20;33.40;;;;;;5008031;28;20018;-64
2021/05/24 03:36:32;;;;;;;0.52;0.40;;;23.20;33.40;;;;;;5008451;28;20343;-63
2021/05/24 03:38:58;;;;;;;0.57;0.30;;;23.20;33.50;;;;;;5004386;28;20352;-63
2021/05/24 03:41:24;;;;;;;1.00;0.50;;;23.30;33.60;;;;;;5011409;28;20022;-63
2021/05/24 03:43:49;;;;;;;0.30;0.20;;;23.20;33.50;;;;;;5008553;28;21805;-62
2021/05/24 03:46:15;;;;;;;0.30;0.20;;;23.20;33.60;;;;;;5009606;28;20025;-63
2021/05/24 03:48:41;;;;;;;0.60;0.40;;;23.20;33.60;;;;;;5009430;28;20080;-64
2021/05/24 03:51:09;;;;;;;0.57;0.32;;;23.20;33.60;;;;;;5007753;28;20041;-64
2021/05/24 03:53:35;;;;;;;0.70;0.30;;;23.20;33.70;;;;;;5007040;28;20026;-64
2021/05/24 03:56:01;;;;;;;0.57;0.30;;;23.20;33.70;;;;;;5006031;28;20349;-63
2021/05/24 03:58:27;;;;;;;1.23;0.35;;;23.20;33.70;;;;;;5009452;28;20049;-66
2021/05/24 04:00:53;;;;;;;0.32;0.30;;;23.20;33.80;;;;;;5005064;28;20025;-63
2021/05/24 04:03:20;;;;;;;0.50;0.25;;;23.20;33.80;;;;;;5009539;28;20088;-65
2021/05/24 04:05:49;;;;;;;0.30;0.30;;;23.20;33.80;;;;;;5010286;28;20022;-65
2021/05/24 04:08:15;;;;;;;0.38;0.20;;;23.10;33.80;;;;;;5009932;28;20572;-64
2021/05/24 04:10:57;;;;;;;0.40;0.30;;;23.20;33.90;;;;;;5009408;28;20060;-63
2021/05/24 04:13:22;;;;;;;1.10;0.30;;;23.10;33.90;;;;;;5009837;28;20026;-63
2021/05/24 04:15:51;;;;;;;0.57;0.30;;;23.10;33.90;;;;;;5007570;28;20030;-63
2021/05/24 04:18:18;;;;;;;0.50;0.30;;;23.10;33.90;;;;;;5006926;28;20099;-63
2021/05/24 04:20:46;;;;;;;1.00;0.40;;;23.10;33.90;;;;;;5008715;28;20104;-62
2021/05/24 04:23:12;;;;;;;0.95;0.20;;;23.10;33.90;;;;;;5006812;28;20022;-62
2021/05/24 04:25:38;;;;;;;1.23;0.17;;;23.10;34.00;;;;;;5004261;28;20361;-62
2021/05/24 04:28:04;;;;;;;0.50;0.30;;;23.10;34.00;;;;;;5009038;28;20056;-64
2021/05/24 04:30:30;;;;;;;0.82;0.35;;;23.10;34.00;;;;;;5009429;28;20622;-64
2021/05/24 04:32:56;;;;;;;0.45;0.28;;;23.10;34.00;;;;;;5010567;28;20030;-65
2021/05/24 04:35:22;;;;;;;0.52;0.20;;;23.10;34.10;;;;;;5007398;28;20026;-64
2021/05/24 04:37:48;;;;;;;0.50;0.30;;;23.10;34.10;;;;;;5007130;28;20022;-64
2021/05/24 04:40:14;;;;;;;0.40;0.30;;;23.10;34.10;;;;;;5004212;28;20385;-64
2021/05/24 04:42:40;;;;;;;0.70;0.20;;;23.10;34.10;;;;;;5008554;28;20061;-63
2021/05/24 04:45:07;;;;;;;0.45;0.30;;;23.00;34.10;;;;;;5007374;28;20018;-64
2021/05/24 04:47:33;;;;;;;1.02;0.40;;;23.00;34.10;;;;;;5007249;28;20133;-64
2021/05/24 04:49:58;;;;;;;0.30;0.30;;;23.00;34.20;;;;;;5003654;28;20357;-62
2021/05/24 04:52:24;;;;;;;0.55;0.30;;;23.00;34.20;;;;;;5005343;28;20034;-63
2021/05/24 04:54:50;;;;;;;0.60;0.32;;;23.00;34.20;;;;;;5009792;28;20026;-63
2021/05/24 04:57:16;;;;;;;0.35;0.28;;;23.00;34.30;;;;;;5006476;28;20083;-64
2021/05/24 04:59:42;;;;;;;1.25;0.30;;;23.00;34.30;;;;;;5006666;28;20045;-64
2021/05/24 05:02:08;;;;;;;0.30;0.20;;;23.00;34.30;;;;;;5007689;28;20068;-65
2021/05/24 05:04:34;;;;;;;0.43;0.20;;;23.00;34.30;;;;;;5007688;28;20065;-64
2021/05/24 05:07:00;;;;;;;0.30;0.30;;;23.00;34.40;;;;;;5005072;28;20038;-63
2021/05/24 05:09:26;;;;;;;0.40;0.30;;;23.00;34.40;;;;;;5011703;28;20037;-63
2021/05/24 05:11:53;;;;;;;1.05;0.30;;;23.00;34.40;;;;;;5011195;28;20026;-64
2021/05/24 05:14:20;;;;;;;0.77;0.30;;;23.00;34.40;;;;;;5012545;28;20026;-64
2021/05/24 05:16:46;;;;;;;0.70;0.40;;;23.00;34.40;;;;;;5010921;28;20034;-63
2021/05/24 05:19:12;;;;;;;0.30;0.30;;;23.00;34.50;;;;;;5012726;28;20033;-62
2021/05/24 05:21:38;;;;;;;0.85;0.40;;;23.00;34.50;;;;;;5010620;28;20049;-66
2021/05/24 05:24:04;;;;;;;0.50;0.40;;;23.00;35.10;;;;;;5014777;28;20025;-64
2021/05/24 05:26:30;;;;;;;0.32;0.13;;;22.90;34.50;;;;;;5008750;28;20441;-64
2021/05/24 05:28:56;;;;;;;1.10;0.30;;;23.00;34.50;;;;;;5012353;28;20144;-63
2021/05/24 05:31:25;;;;;;;0.70;0.38;;;23.00;34.60;;;;;;5010671;28;20095;-64
2021/05/24 05:33:51;;;;;;;0.40;0.30;;;22.90;34.50;;;;;;5010525;28;20045;-64
2021/05/24 05:36:18;;;;;;;0.38;0.38;;;22.90;34.60;;;;;;5008943;28;20446;-64
2021/05/24 05:38:44;;;;;;;0.88;0.30;;;22.90;34.60;;;;;;5012109;28;20408;-64
2021/05/24 05:41:10;;;;;;;0.60;0.40;;;22.90;34.60;;;;;;5011865;28;20025;-64
2021/05/24 05:43:36;;;;;;;0.70;0.35;;;22.90;34.70;;;;;;5014761;28;20084;-66
2021/05/24 05:46:01;;;;;;;0.98;0.50;;;22.90;34.70;;;;;;5010329;28;20040;-63
2021/05/24 05:48:27;;;;;;;0.17;0.17;;;22.90;34.70;;;;;;5012234;28;20036;-64
2021/05/24 05:50:54;;;;;;;0.30;0.20;;;22.90;34.70;;;;;;5009933;28;20381;-65
2021/05/24 05:53:20;;;;;;;0.35;0.28;;;22.90;34.80;;;;;;5007726;28;20041;-65
2021/05/24 05:55:46;;;;;;;0.95;0.30;;;22.90;34.70;;;;;;5010333;28;20061;-64
2021/05/24 05:58:11;;;;;;;0.40;0.20;;;22.90;34.80;;;;;;5011360;28;20081;-63
2021/05/24 06:00:38;;;;;;;0.32;0.25;;;22.90;34.80;;;;;;5007758;28;20029;-64
2021/05/24 06:03:05;;;;;;;0.77;0.30;;;22.90;34.80;;;;;;5008788;28;20026;-63
2021/05/24 06:05:31;;;;;;;0.30;0.30;;;22.90;34.80;;;;;;5009459;28;20022;-63
2021/05/24 06:07:58;;;;;;;0.30;0.20;;;22.90;34.90;;;;;;5005935;28;20104;-61
2021/05/24 06:10:24;;;;;;;0.40;0.20;;;22.90;34.90;;;;;;5011847;28;20101;-63
2021/05/24 06:12:50;;;;;;;0.20;0.10;;;22.90;35.00;;;;;;5007511;28;20037;-63
2021/05/24 06:15:17;;;;;;;0.20;0.20;;;22.90;35.00;;;;;;5010716;28;20501;-61
2021/05/24 06:17:44;;;;;;;0.20;0.20;;;22.90;35.00;;;;;;5011431;28;20038;-64
2021/05/24 06:20:10;;;;;;;0.65;0.25;;;22.90;35.00;;;;;;5010744;28;20026;-63
2021/05/24 06:22:36;;;;;;;0.52;0.35;;;22.90;35.10;;;;;;5007043;28;20038;-63
2021/05/24 06:25:03;;;;;;;0.20;0.20;;;22.90;35.10;;;;;;5009269;28;20153;-64
2021/05/24 06:27:29;;;;;;;0.50;0.30;;;22.90;35.10;;;;;;5008341;28;20120;-64
2021/05/24 06:29:54;;;;;;;0.50;0.30;;;22.90;35.10;;;;;;5011941;28;20022;-64
2021/05/24 06:32:20;;;;;;;0.45;0.30;;;22.90;35.10;;;;;;5010044;28;20037;-64
2021/05/24 06:34:48;;;;;;;0.38;0.20;;;22.90;35.10;;;;;;5010537;28;20124;-63
2021/05/24 06:37:14;;;;;;;0.40;0.25;;;22.90;35.20;;;;;;5007079;28;20026;-64
2021/05/24 06:39:39;;;;;;;0.20;0.10;;;22.90;35.20;;;;;;5008249;28;20184;-63
2021/05/24 06:42:06;;;;;;;1.50;0.40;;;22.90;35.20;;;;;;5007211;28;20462;-64
2021/05/24 06:44:32;;;;;;;0.57;0.30;;;22.90;35.20;;;;;;5003808;28;20026;-65
2021/05/24 06:46:58;;;;;;;0.40;0.28;;;22.90;35.20;;;;;;5004876;28;20046;-65
2021/05/24 06:49:24;;;;;;;1.38;0.20;;;22.90;35.20;;;;;;5012232;28;20449;-64
2021/05/24 06:51:54;;;;;;;0.47;0.20;;;22.90;35.20;;;;;;5016180;28;20071;-65
2021/05/24 06:54:20;;;;;;;0.75;0.25;;;22.90;35.30;;;;;;5014798;28;20049;-64
2021/05/24 06:56:47;;;;;;;1.02;0.20;;;22.90;35.30;;;;;;5013987;28;20029;-64
2021/05/24 06:59:13;;;;;;;0.20;0.15;;;22.90;35.30;;;;;;5012739;28;20161;-65
2021/05/24 07:01:39;;;;;;;0.65;0.40;;;22.90;35.30;;;;;;5014791;28;20107;-64
2021/05/24 07:04:08;;;;;;;0.20;0.20;;;22.90;35.40;;;;;;5014586;28;20048;-69
2021/05/24 07:06:35;;;;;;;0.60;0.20;;;22.90;35.50;;;;;;5013856;28;20365;-64
2021/05/24 07:09:02;;;;;;;0.10;0.10;;;22.90;35.50;;;;;;4996014;28;20030;-64
2021/05/24 07:11:28;;;;;;;0.15;0.10;;;22.90;35.60;;;;;;5012773;28;20030;-64
2021/05/24 07:13:54;;;;;;;1.25;0.30;;;22.90;35.50;;;;;;5013319;28;20091;-63
2021/05/24 07:16:19;;;;;;;0.43;0.22;;;22.90;35.50;;;;;;5013860;28;20116;-62
2021/05/24 07:18:45;;;;;;;0.80;0.20;;;22.90;35.50;;;;;;5013134;28;20030;-66
2021/05/24 07:21:11;;;;;;;0.38;0.20;;;22.90;35.60;;;;;;5013056;28;20030;-67
2021/05/24 07:23:37;;;;;;;0.70;0.38;;;22.90;35.60;;;;;;5012964;28;20057;-67
2021/05/24 07:26:02;;;;;;;0.50;0.30;;;22.90;35.60;;;;;;5012254;28;20125;-66
2021/05/24 07:28:28;;;;;;;0.95;0.30;;;22.90;35.60;;;;;;5012726;28;20072;-65
2021/05/24 07:30:54;;;;;;;0.57;0.20;;;22.90;35.70;;;;;;5011602;28;20054;-62
2021/05/24 07:33:20;;;;;;;0.50;0.30;;;22.90;35.70;;;;;;5012701;28;20021;-65
2021/05/24 07:35:46;;;;;;;0.77;0.40;;;22.90;35.80;;;;;;4971556;28;20047;-57
2021/05/24 07:38:12;;;;;;;1.35;0.30;;;22.90;35.90;;;;;;4955750;28;20113;-52
2021/05/24 07:40:38;;;;;;;0.63;0.28;;;23.00;36.00;;;;;;4971691;28;20066;-56
2021/05/24 07:43:04;;;;;;;1.13;0.40;;;23.00;36.70;;;;;;4968275;28;20030;-52
2021/05/24 07:45:30;;;;;;;0.63;0.35;;;23.00;36.10;;;;;;4971381;28;20121;-50
2021/05/24 07:47:55;;;;;;;0.70;0.40;;;23.00;36.10;;;;;;4970831;28;20034;-46
2021/05/24 07:50:21;;;;;;;2.55;1.23;;;23.00;36.10;;;;;;4979548;28;20464;-45
2021/05/24 07:52:47;;;;;;;2.60;1.70;;;23.00;36.30;;;;;;4972172;28;20049;-55
2021/05/24 07:55:13;;;;;;;7.15;2.65;;;23.00;36.80;;;;;;4988507;28;20046;-55
2021/05/24 07:57:39;;;;;;;4.03;2.15;;;23.00;37.50;;;;;;4956562;28;20035;-55
2021/05/24 08:00:08;;;;;;;4.63;2.63;;;23.00;38.10;;;;;;4972692;28;20031;-51
2021/05/24 08:02:38;;;;;;;6.30;2.83;;;23.00;38.30;;;;;;4972750;28;20047;-53
2021/05/24 08:05:04;;;;;;;8.23;3.28;;;23.00;38.50;;;;;;4972074;28;20034;-50
2021/05/24 08:07:30;;;;;;;6.05;3.30;;;23.00;38.90;;;;;;5005703;28;20489;-48
2021/05/24 08:09:55;;;;;;;5.05;2.85;;;23.10;39.30;;;;;;5013182;28;20592;-56
2021/05/24 08:12:21;;;;;;;4.10;2.13;;;23.10;39.30;;;;;;5014115;28;20069;-53
2021/05/24 08:14:47;;;;;;;4.70;1.95;;;23.10;39.20;;;;;;5014153;28;20033;-54
2021/05/24 08:17:13;;;;;;;3.08;1.67;;;23.10;39.10;;;;;;5013666;28;20030;-48
2021/05/24 08:19:39;;;;;;;5.38;2.85;;;23.10;39.00;;;;;;5013015;28;20022;-45
2021/05/24 08:22:05;;;;;;;8.18;2.10;;;23.10;39.10;;;;;;5013738;28;20358;-50
2021/05/24 08:24:31;;;;;;;5.43;2.45;;;23.10;39.30;;;;;;5013720;28;20057;-45
2021/05/24 08:26:56;;;;;;;8.10;3.70;;;23.10;39.50;;;;;;5013740;28;20105;-45
2021/05/24 08:29:22;;;;;;;8.88;4.43;;;23.10;40.00;;;;;;5028130;28;20034;-47
2021/05/24 08:31:48;;;;;;;8.35;4.50;;;23.10;40.50;;;;;;5014786;28;20034;-45
2021/05/24 08:34:14;;;;;;;9.43;4.22;;;23.10;41.10;;;;;;5013754;28;20041;-50
2021/05/24 08:36:42;;;;;;;10.38;4.78;;;23.10;41.70;;;;;;5015294;28;20034;-50
2021/05/24 08:39:09;;;;;;;7.50;4.07;;;23.20;42.30;;;;;;5031329;28;20069;-49
2021/05/24 08:41:35;;;;;;;6.38;3.00;;;23.20;42.40;;;;;;5012572;28;20030;-51
2021/05/24 08:44:01;;;;;;;6.18;3.08;;;23.10;42.10;;;;;;5013679;28;20058;-50
2021/05/24 08:46:27;;;;;;;4.82;2.35;;;23.20;41.90;;;;;;5016999;28;20499;-50
2021/05/24 08:48:53;;;;;;;4.72;2.15;;;23.10;41.60;;;;;;5017526;28;20040;-49
2021/05/24 08:51:19;;;;;;;5.00;2.38;;;23.20;41.40;;;;;;5017219;28;20026;-51
2021/05/24 08:53:45;;;;;;;6.45;3.03;;;23.20;41.40;;;;;;5017192;28;20461;-50
2021/05/24 08:56:11;;;;;;;6.38;3.33;;;23.20;42.10;;;;;;5020205;28;20092;-48
2021/05/24 08:58:38;;;;;;;5.95;2.88;;;23.20;42.60;;;;;;5013280;28;20056;-49
2021/05/24 09:01:05;;;;;;;7.25;2.50;;;23.20;42.80;;;;;;5017410;28;20336;-53
2021/05/24 09:03:33;;;;;;;4.93;2.38;;;23.20;42.70;;;;;;5019679;28;20075;-55
2021/05/24 09:06:02;;;;;;;4.82;2.00;;;23.20;42.80;;;;;;5016153;28;20061;-54
2021/05/24 09:08:42;;;;;;;5.20;2.15;;;23.30;42.80;;;;;;5016449;28;20038;-55
2021/05/24 09:11:29;;;;;;;3.15;1.63;;;23.30;42.70;;;;;;5015864;28;20034;-49
2021/05/24 09:13:55;;;;;;;3.13;1.70;;;23.30;42.60;;;;;;5016491;28;20445;-51
2021/05/24 09:16:31;;;;;;;3.25;1.40;;;23.30;42.60;;;;;;5016408;28;20060;-51
2021/05/24 09:19:15;;;;;;;3.45;1.60;;;23.40;42.50;;;;;;5016585;28;20066;-48
2021/05/24 09:21:52;;;;;;;2.92;1.52;;;23.50;42.40;;;;;;5019506;28;20052;-50
2021/05/24 09:24:26;;;;;;;3.95;1.80;;;23.50;42.50;;;;;;5018603;28;20026;-54
2021/05/24 09:26:52;;;;;;;3.25;1.70;;;23.50;42.50;;;;;;5016652;28;20384;-54
2021/05/24 09:29:22;;;;;;;2.97;1.40;;;23.50;42.40;;;;;;5015049;28;20112;-56
2021/05/24 09:32:10;;;;;;;2.38;1.30;;;23.60;42.30;;;;;;5016504;28;20033;-59
2021/05/24 09:34:36;;;;;;;3.20;1.27;;;23.60;42.70;;;;;;5019739;28;20361;-50
2021/05/24 09:37:02;;;;;;;1.88;1.00;;;23.60;41.90;;;;;;5014000;28;20030;-51
2021/05/24 09:39:33;;;;;;;4.05;1.23;;;23.60;41.70;;;;;;5013260;28;20906;-58
2021/05/24 09:42:04;;;;;;;3.08;1.30;;;23.70;41.60;;;;;;5009317;28;20056;-53
2021/05/24 09:44:32;;;;;;;2.47;1.10;;;23.70;41.40;;;;;;5015243;28;20022;-59
2021/05/24 09:46:58;;;;;;;3.45;1.58;;;23.70;41.30;;;;;;5011333;28;20034;-65
2021/05/24 09:49:26;;;;;;;2.88;1.52;;;23.70;41.40;;;;;;5013501;28;20100;-62
2021/05/24 09:51:52;;;;;;;4.90;1.60;;;23.70;41.60;;;;;;5013318;28;20037;-63
2021/05/24 09:54:21;;;;;;;2.55;1.27;;;23.70;41.60;;;;;;5009215;28;20362;-63
2021/05/24 09:56:48;;;;;;;4.22;1.13;;;23.70;41.50;;;;;;5013809;28;20026;-62
2021/05/24 09:59:16;;;;;;;1.80;1.10;;;23.80;41.20;;;;;;5013829;28;20038;-65
2021/05/24 10:01:49;;;;;;;1.90;0.98;;;23.80;40.80;;;;;;5010897;28;20152;-61
2021/05/24 10:04:17;;;;;;;1.58;0.80;;;23.90;40.60;;;;;;5014088;28;20326;-61
2021/05/24 10:06:44;;;;;;;2.55;0.88;;;23.90;40.30;;;;;;5011588;28;20046;-61
2021/05/24 10:09:11;;;;;;;5.00;0.85;;;23.90;40.00;;;;;;5014421;28;20038;-63
2021/05/24 10:11:40;;;;;;;1.73;0.70;;;23.90;39.90;;;;;;5013981;28;20095;-63
2021/05/24 10:14:07;;;;;;;1.38;0.93;;;24.00;39.90;;;;;;5017054;28;20022;-63
2021/05/24 10:16:36;;;;;;;1.83;0.82;;;23.90;39.80;;;;;;5013202;28;20079;-63
2021/05/24 10:19:07;;;;;;;3.00;0.95;;;24.00;39.70;;;;;;5011579;28;20038;-62
2021/05/24 10:21:34;;;;;;;1.48;0.93;;;24.00;39.70;;;;;;5009175;28;20037;-62
2021/05/24 10:24:01;;;;;;;1.42;0.60;;;24.00;39.60;;;;;;5014288;28;20032;-63
2021/05/24 10:26:28;;;;;;;2.95;1.10;;;24.00;39.50;;;;;;5013858;28;20061;-62
2021/05/24 10:28:56;;;;;;;1.52;0.77;;;24.00;39.30;;;;;;5012490;28;20462;-62
2021/05/24 10:31:25;;;;;;;1.80;0.80;;;24.00;39.30;;;;;;5013695;28;20477;-63
2021/05/24 10:33:51;;;;;;;1.10;0.60;;;24.00;39.20;;;;;;5012795;28;20034;-61
2021/05/24 10:36:18;;;;;;;1.10;0.50;;;24.10;39.10;;;;;;5014812;28;20025;-60
2021/05/24 10:39:06;;;;;;;1.30;0.60;;;24.10;39.00;;;;;;5013965;28;20057;-60
2021/05/24 10:41:51;;;;;;;1.38;0.77;;;24.10;38.80;;;;;;4972639;28;20039;-61
2021/05/24 10:44:20;;;;;;;0.75;0.50;;;24.10;38.60;;;;;;4949596;28;20030;-62
2021/05/24 10:46:46;;;;;;;0.95;0.32;;;24.10;38.50;;;;;;4971386;28;20046;-63
2021/05/24 10:49:24;;;;;;;1.13;0.60;;;24.10;38.50;;;;;;4972249;28;20026;-64
2021/05/24 10:51:51;;;;;;;0.95;0.50;;;24.10;38.30;;;;;;4969455;28;20486;-61
2021/05/24 10:54:19;;;;;;;1.17;0.52;;;24.10;38.40;;;;;;4973138;28;20031;-61
2021/05/24 10:56:47;;;;;;;0.85;0.43;;;24.10;38.40;;;;;;4956016;28;20047;-62
2021/05/24 10:59:34;;;;;;;0.85;0.63;;;24.20;38.40;;;;;;4952985;28;20030;-61
2021/05/24 11:02:00;;;;;;;0.52;0.32;;;24.20;38.20;;;;;;4972760;28;20043;-61
2021/05/24 11:04:54;;;;;;;0.45;0.30;;;24.20;38.30;;;;;;4973283;28;20320;-65
2021/05/24 11:07:44;;;;;;;0.85;0.50;;;24.20;38.10;;;;;;4949526;28;20051;-65
2021/05/24 11:10:13;;;;;;;0.40;0.30;;;24.20;38.10;;;;;;4967191;28;20035;-64
2021/05/24 11:12:49;;;;;;;1.02;0.40;;;24.20;38.10;;;;;;4993532;28;20054;-63
2021/05/24 11:15:36;;;;;;;0.68;0.40;;;24.20;38.00;;;;;;5012216;28;20029;-64
2021/05/24 11:18:06;;;;;;;0.30;0.30;;;24.20;37.90;;;;;;5008072;28;20032;-65
2021/05/24 11:20:43;;;;;;;1.10;0.35;;;24.10;37.90;;;;;;5011938;28;20026;-66
2021/05/24 11:25:59;;;;;;;0.60;0.40;;;24.10;37.90;;;;;;5012033;28;20062;-65
2021/05/24 11:28:36;;;;;;;0.63;0.30;;;24.20;37.90;;;;;;5012712;28;20537;-67
2021/05/24 11:31:17;;;;;;;0.57;0.30;;;24.20;37.90;;;;;;5011314;28;20034;-66
2021/05/24 11:33:55;;;;;;;0.55;0.45;;;24.20;38.00;;;;;;5014486;28;20025;-62
2021/05/24 11:36:42;;;;;;;0.50;0.25;;;24.10;37.90;;;;;;5013237;28;20434;-63
2021/05/24 11:39:20;;;;;;;0.65;0.40;;;24.10;37.90;;;;;;5011437;28;20053;-63
2021/05/24 11:42:17;;;;;;;0.55;0.25;;;24.20;38.00;;;;;;5013843;28;20495;-63
2021/05/24 11:44:51;;;;;;;0.20;0.10;;;24.20;38.00;;;;;;4997099;28;20069;-64
2021/05/24 11:47:23;;;;;;;0.10;0.10;;;24.20;37.90;;;;;;5011043;28;20063;-66
2021/05/24 11:50:01;;;;;;;0.40;0.20;;;24.20;37.90;;;;;;5010566;28;20034;-64
2021/05/24 11:52:38;;;;;;;0.40;0.20;;;24.20;37.90;;;;;;5010860;28;20038;-62
2021/05/24 11:55:14;;;;;;;0.70;0.20;;;24.20;37.90;;;;;;5013245;28;20049;-66
2021/05/24 11:57:48;;;;;;;0.20;0.10;;;24.20;37.80;;;;;;4998839;28;20125;-68
2021/05/24 12:00:24;;;;;;;0.17;0.17;;;24.20;37.70;;;;;;5008193;28;20172;-66
2021/05/24 12:02:51;;;;;;;0.68;0.20;;;24.20;37.70;;;;;;5011902;28;20408;-63
2021/05/24 12:05:27;;;;;;;0.82;0.20;;;24.20;37.70;;;;;;5013359;28;20112;-63
2021/05/24 12:07:59;;;;;;;0.10;0.10;;;24.20;37.60;;;;;;5004273;28;20034;-66
2021/05/24 12:10:28;;;;;;;0.17;0.10;;;24.20;37.60;;;;;;5011484;28;20041;-66
2021/05/24 12:12:57;;;;;;;0.38;0.25;;;24.20;37.60;;;;;;5007148;28;20451;-64
2021/05/24 12:15:24;;;;;;;0.45;0.20;;;24.20;37.50;;;;;;4995950;28;20030;-65
2021/05/24 12:17:51;;;;;;;0.52;0.28;;;24.30;37.50;;;;;;5012783;28;20409;-67
2021/05/24 12:20:23;;;;;;;0.20;0.10;;;24.30;37.50;;;;;;5016310;28;20034;-63
2021/05/24 12:22:58;;;;;;;0.98;0.20;;;24.20;37.40;;;;;;5017642;28;20030;-64
2021/05/24 12:25:28;;;;;;;0.20;0.10;;;24.30;37.40;;;;;;5013922;28;20139;-66
2021/05/24 12:28:08;;;;;;;0.20;0.20;;;24.30;37.40;;;;;;5016818;28;20037;-63
2021/05/24 12:30:42;;;;;;;0.10;0.10;;;24.30;37.40;;;;;;5016260;28;20041;-62
2021/05/24 12:33:15;;;;;;;0.45;0.30;;;24.20;37.30;;;;;;5001671;28;20100;-62
2021/05/24 12:35:54;;;;;;;0.10;0.10;;;24.20;37.30;;;;;;4997188;28;20755;-66
2021/05/24 12:38:32;;;;;;;0.43;0.20;;;24.30;37.30;;;;;;5003793;28;20048;-66
2021/05/24 12:41:01;;;;;;;0.52;0.10;;;24.20;37.20;;;;;;5013838;28;20500;-66
2021/05/24 12:43:47;;;;;;;0.13;0.10;;;24.20;37.20;;;;;;4980121;28;20116;-65
2021/05/24 12:46:16;;;;;;;0.50;0.20;;;24.20;37.20;;;;;;4997055;28;20038;-65
2021/05/24 12:48:43;;;;;;;0.28;0.10;;;24.20;37.20;;;;;;4995649;28;20050;-65
2021/05/24 12:51:34;;;;;;;0.17;0.10;;;24.20;37.20;;;;;;4991696;28;20536;-67
2021/05/24 12:54:06;;;;;;;0.20;0.10;;;24.20;37.20;;;;;;4979564;28;20111;-63
2021/05/24 12:56:44;;;;;;;0.10;0.10;;;24.30;37.10;;;;;;4977657;28;20045;-58